sensor_id;sensor_type;location;lat;lon;timestamp;pressure;altitude;pressure_sealevel;temperature;humidity
54948;BME280;41113;41.882;12.530;2023-04-06T00:00:48;101085.06;;;6.51;84.77
54948;BME280;41113;41.882;12.530;2023-04-06T00:03:14;101085.25;;;6.48;84.21
54948;BME280;41113;41.882;12.530;2023-04-06T00:05:40;101082.22;;;6.40;84.09
54948;BME280;41113;41.882;12.530;2023-04-06T00:08:06;101089.22;;;6.29;83.43
54948;BME280;41113;41.882;12.530;2023-04-06T00:10:31;101096.16;;;6.31;82.29
54948;BME280;41113;41.882;12.530;2023-04-06T00:12:57;101106.84;;;6.31;81.03
54948;BME280;41113;41.882;12.530;2023-04-06T00:15:24;101097.72;;;6.21;79.51
54948;BME280;41113;41.882;12.530;2023-04-06T00:17:49;101099.16;;;6.12;79.31
54948;BME280;41113;41.882;12.530;2023-04-06T00:20:15;101105.13;;;6.16;79.15
54948;BME280;41113;41.882;12.530;2023-04-06T00:22:41;101102.88;;;6.10;79.26
54948;BME280;41113;41.882;12.530;2023-04-06T00:25:07;101107.16;;;6.12;79.73
54948;BME280;41113;41.882;12.530;2023-04-06T00:27:33;101106.38;;;6.10;79.22
54948;BME280;41113;41.882;12.530;2023-04-06T00:29:58;101100.78;;;6.01;78.60
54948;BME280;41113;41.882;12.530;2023-04-06T00:32:25;101102.59;;;5.86;79.09
54948;BME280;41113;41.882;12.530;2023-04-06T00:34:50;101104.03;;;5.91;79.45
54948;BME280;41113;41.882;12.530;2023-04-06T00:37:16;101100.78;;;5.86;78.65
54948;BME280;41113;41.882;12.530;2023-04-06T00:39:42;101097.00;;;5.90;78.93
54948;BME280;41113;41.882;12.530;2023-04-06T00:42:11;101100.19;;;6.10;78.84
54948;BME280;41113;41.882;12.530;2023-04-06T00:44:43;101104.03;;;6.06;77.71
54948;BME280;41113;41.882;12.530;2023-04-06T00:47:09;101104.28;;;6.15;78.26
54948;BME280;41113;41.882;12.530;2023-04-06T00:49:35;101100.28;;;6.08;78.10
54948;BME280;41113;41.882;12.530;2023-04-06T00:52:01;101099.63;;;6.19;77.64
54948;BME280;41113;41.882;12.530;2023-04-06T00:54:28;101100.19;;;6.10;77.35
54948;BME280;41113;41.882;12.530;2023-04-06T00:56:53;101098.38;;;6.24;77.46
54948;BME280;41113;41.882;12.530;2023-04-06T00:59:19;101107.44;;;6.22;76.56
54948;BME280;41113;41.882;12.530;2023-04-06T01:01:45;101104.78;;;6.22;76.14
54948;BME280;41113;41.882;12.530;2023-04-06T01:04:10;101100.28;;;6.22;76.27
54948;BME280;41113;41.882;12.530;2023-04-06T01:06:36;101104.38;;;6.14;76.55
54948;BME280;41113;41.882;12.530;2023-04-06T01:09:01;101105.13;;;6.16;77.21
54948;BME280;41113;41.882;12.530;2023-04-06T01:11:26;101096.00;;;6.20;76.52
54948;BME280;41113;41.882;12.530;2023-04-06T01:13:52;101107.53;;;6.06;75.63
54948;BME280;41113;41.882;12.530;2023-04-06T01:16:18;101099.06;;;5.85;75.60
54948;BME280;41113;41.882;12.530;2023-04-06T01:18:44;101096.00;;;5.77;75.38
54948;BME280;41113;41.882;12.530;2023-04-06T01:21:09;101094.13;;;5.65;75.44
54948;BME280;41113;41.882;12.530;2023-04-06T01:23:43;101094.78;;;5.69;75.53
54948;BME280;41113;41.882;12.530;2023-04-06T01:26:10;101096.22;;;5.60;75.54
54948;BME280;41113;41.882;12.530;2023-04-06T01:28:35;101089.56;;;5.53;75.83
54948;BME280;41113;41.882;12.530;2023-04-06T01:31:05;101089.34;;;5.56;75.89
54948;BME280;41113;41.882;12.530;2023-04-06T01:33:30;101085.06;;;5.53;76.61
54948;BME280;41113;41.882;12.530;2023-04-06T01:35:56;101085.94;;;5.54;76.42
54948;BME280;41113;41.882;12.530;2023-04-06T01:38:21;101085.44;;;5.47;76.42
54948;BME280;41113;41.882;12.530;2023-04-06T01:40:47;101080.97;;;5.48;76.90
54948;BME280;41113;41.882;12.530;2023-04-06T01:43:12;101080.38;;;5.43;77.16
54948;BME280;41113;41.882;12.530;2023-04-06T01:45:38;101076.69;;;5.45;77.52
54948;BME280;41113;41.882;12.530;2023-04-06T01:48:03;101083.72;;;5.46;76.94
54948;BME280;41113;41.882;12.530;2023-04-06T01:50:29;101078.19;;;5.35;77.48
54948;BME280;41113;41.882;12.530;2023-04-06T01:52:54;101073.81;;;5.48;77.76
54948;BME280;41113;41.882;12.530;2023-04-06T01:55:20;101080.19;;;5.46;77.50
54948;BME280;41113;41.882;12.530;2023-04-06T01:57:45;101080.03;;;5.63;76.65
54948;BME280;41113;41.882;12.530;2023-04-06T02:00:11;101081.75;;;5.64;75.87
54948;BME280;41113;41.882;12.530;2023-04-06T02:02:37;101084.59;;;5.75;75.80
54948;BME280;41113;41.882;12.530;2023-04-06T02:05:02;101083.06;;;5.43;75.92
54948;BME280;41113;41.882;12.530;2023-04-06T02:07:28;101081.72;;;5.36;75.95
54948;BME280;41113;41.882;12.530;2023-04-06T02:09:54;101083.41;;;5.22;75.94
54948;BME280;41113;41.882;12.530;2023-04-06T02:12:20;101080.16;;;5.17;76.19
54948;BME280;41113;41.882;12.530;2023-04-06T02:14:46;101079.09;;;5.06;76.51
54948;BME280;41113;41.882;12.530;2023-04-06T02:17:11;101076.53;;;5.04;76.88
54948;BME280;41113;41.882;12.530;2023-04-06T02:19:37;101073.75;;;5.06;76.87
54948;BME280;41113;41.882;12.530;2023-04-06T02:22:02;101072.25;;;5.02;77.13
54948;BME280;41113;41.882;12.530;2023-04-06T02:24:27;101068.84;;;4.84;77.83
54948;BME280;41113;41.882;12.530;2023-04-06T02:26:53;101072.13;;;4.89;77.71
54948;BME280;41113;41.882;12.530;2023-04-06T02:29:18;101075.13;;;4.83;77.37
54948;BME280;41113;41.882;12.530;2023-04-06T02:31:43;101073.28;;;4.69;77.75
54948;BME280;41113;41.882;12.530;2023-04-06T02:34:09;101073.00;;;4.74;77.88
54948;BME280;41113;41.882;12.530;2023-04-06T02:36:37;101081.94;;;4.73;77.84
54948;BME280;41113;41.882;12.530;2023-04-06T02:39:02;101070.44;;;4.72;77.92
54948;BME280;41113;41.882;12.530;2023-04-06T02:41:28;101074.72;;;4.75;77.87
54948;BME280;41113;41.882;12.530;2023-04-06T02:43:54;101073.38;;;4.67;78.24
54948;BME280;41113;41.882;12.530;2023-04-06T02:46:19;101073.56;;;4.64;78.78
54948;BME280;41113;41.882;12.530;2023-04-06T02:48:45;101075.44;;;4.62;78.70
54948;BME280;41113;41.882;12.530;2023-04-06T02:51:10;101073.72;;;4.61;78.87
54948;BME280;41113;41.882;12.530;2023-04-06T02:53:36;101074.84;;;4.57;78.78
54948;BME280;41113;41.882;12.530;2023-04-06T02:56:01;101078.19;;;4.61;78.62
54948;BME280;41113;41.882;12.530;2023-04-06T02:58:26;101067.81;;;4.56;78.90
54948;BME280;41113;41.882;12.530;2023-04-06T03:00:52;101079.31;;;4.57;78.94
54948;BME280;41113;41.882;12.530;2023-04-06T03:03:17;101071.34;;;4.41;79.19
54948;BME280;41113;41.882;12.530;2023-04-06T03:05:43;101078.63;;;4.53;79.09
54948;BME280;41113;41.882;12.530;2023-04-06T03:08:08;101071.34;;;4.41;78.98
54948;BME280;41113;41.882;12.530;2023-04-06T03:10:33;101077.38;;;4.29;79.19
54948;BME280;41113;41.882;12.530;2023-04-06T03:12:59;101077.88;;;4.20;79.68
54948;BME280;41113;41.882;12.530;2023-04-06T03:15:24;101078.03;;;4.17;79.48
54948;BME280;41113;41.882;12.530;2023-04-06T03:17:49;101076.69;;;4.10;80.08
54948;BME280;41113;41.882;12.530;2023-04-06T03:20:15;101072.22;;;4.10;79.95
54948;BME280;41113;41.882;12.530;2023-04-06T03:22:40;101073.06;;;4.11;80.05
54948;BME280;41113;41.882;12.530;2023-04-06T03:25:06;101066.72;;;4.13;79.58
54948;BME280;41113;41.882;12.530;2023-04-06T03:27:31;101070.16;;;3.99;80.38
54948;BME280;41113;41.882;12.530;2023-04-06T03:29:57;101075.66;;;4.12;80.02
54948;BME280;41113;41.882;12.530;2023-04-06T03:32:23;101075.56;;;4.14;79.79
54948;BME280;41113;41.882;12.530;2023-04-06T03:34:48;101084.38;;;4.14;79.80
54948;BME280;41113;41.882;12.530;2023-04-06T03:37:14;101086.38;;;4.11;79.89
54948;BME280;41113;41.882;12.530;2023-04-06T03:39:39;101079.69;;;4.03;79.99
54948;BME280;41113;41.882;12.530;2023-04-06T03:42:08;101081.91;;;4.11;80.15
54948;BME280;41113;41.882;12.530;2023-04-06T03:44:33;101087.47;;;4.06;79.83
54948;BME280;41113;41.882;12.530;2023-04-06T03:46:59;101088.00;;;4.13;79.76
54948;BME280;41113;41.882;12.530;2023-04-06T03:49:24;101091.00;;;4.07;79.91
54948;BME280;41113;41.882;12.530;2023-04-06T03:51:50;101091.25;;;4.02;79.91
54948;BME280;41113;41.882;12.530;2023-04-06T03:54:15;101098.63;;;3.97;80.10
54948;BME280;41113;41.882;12.530;2023-04-06T03:56:40;101102.22;;;3.96;80.39
54948;BME280;41113;41.882;12.530;2023-04-06T03:59:06;101109.09;;;4.00;80.41
54948;BME280;41113;41.882;12.530;2023-04-06T04:01:31;101105.47;;;4.01;80.30
54948;BME280;41113;41.882;12.530;2023-04-06T04:03:56;101107.38;;;3.99;80.37
54948;BME280;41113;41.882;12.530;2023-04-06T04:06:22;101102.91;;;4.00;80.25
54948;BME280;41113;41.882;12.530;2023-04-06T04:08:47;101103.09;;;3.97;80.03
54948;BME280;41113;41.882;12.530;2023-04-06T04:11:12;101101.19;;;3.99;80.43
54948;BME280;41113;41.882;12.530;2023-04-06T04:13:38;101103.78;;;4.00;80.03
54948;BME280;41113;41.882;12.530;2023-04-06T04:16:03;101103.59;;;4.03;80.21
54948;BME280;41113;41.882;12.530;2023-04-06T04:18:30;101107.19;;;4.02;80.24
54948;BME280;41113;41.882;12.530;2023-04-06T04:20:56;101107.44;;;3.98;80.28
54948;BME280;41113;41.882;12.530;2023-04-06T04:23:21;101109.25;;;3.97;80.68
54948;BME280;41113;41.882;12.530;2023-04-06T04:25:48;101111.31;;;3.92;80.71
54948;BME280;41113;41.882;12.530;2023-04-06T04:28:13;101108.75;;;3.91;80.59
54948;BME280;41113;41.882;12.530;2023-04-06T04:30:40;101107.72;;;4.09;80.97
54948;BME280;41113;41.882;12.530;2023-04-06T04:33:05;101108.81;;;4.05;80.49
54948;BME280;41113;41.882;12.530;2023-04-06T04:35:31;101102.56;;;4.06;80.14
54948;BME280;41113;41.882;12.530;2023-04-06T04:37:56;101111.66;;;4.18;79.62
54948;BME280;41113;41.882;12.530;2023-04-06T04:40:21;101103.59;;;4.19;79.26
54948;BME280;41113;41.882;12.530;2023-04-06T04:42:49;101103.69;;;4.18;79.38
54948;BME280;41113;41.882;12.530;2023-04-06T04:45:16;101116.97;;;4.18;78.89
54948;BME280;41113;41.882;12.530;2023-04-06T04:47:41;101110.28;;;4.11;79.00
54948;BME280;41113;41.882;12.530;2023-04-06T04:50:07;101119.97;;;4.12;79.41
54948;BME280;41113;41.882;12.530;2023-04-06T04:52:37;101114.91;;;4.07;79.05
54948;BME280;41113;41.882;12.530;2023-04-06T04:55:03;101110.63;;;4.04;79.47
54948;BME280;41113;41.882;12.530;2023-04-06T04:57:28;101112.84;;;4.12;79.42
54948;BME280;41113;41.882;12.530;2023-04-06T04:59:54;101113.47;;;4.01;79.79
54948;BME280;41113;41.882;12.530;2023-04-06T05:02:19;101116.47;;;4.11;79.75
54948;BME280;41113;41.882;12.530;2023-04-06T05:04:44;101115.63;;;4.26;78.90
54948;BME280;41113;41.882;12.530;2023-04-06T05:07:10;101118.50;;;4.53;78.77
54948;BME280;41113;41.882;12.530;2023-04-06T05:09:36;101111.88;;;5.50;76.81
54948;BME280;41113;41.882;12.530;2023-04-06T05:12:01;101109.09;;;6.37;71.30
54948;BME280;41113;41.882;12.530;2023-04-06T05:14:27;101112.66;;;6.92;69.54
54948;BME280;41113;41.882;12.530;2023-04-06T05:17:00;101119.34;;;7.37;66.62
54948;BME280;41113;41.882;12.530;2023-04-06T05:19:25;101122.25;;;7.59;64.83
54948;BME280;41113;41.882;12.530;2023-04-06T05:21:51;101118.16;;;7.15;66.46
54948;BME280;41113;41.882;12.530;2023-04-06T05:24:16;101123.00;;;6.96;66.52
54948;BME280;41113;41.882;12.530;2023-04-06T05:26:42;101124.13;;;6.52;68.15
54948;BME280;41113;41.882;12.530;2023-04-06T05:29:08;101134.31;;;6.87;68.70
54948;BME280;41113;41.882;12.530;2023-04-06T05:31:34;101142.25;;;7.01;67.47
54948;BME280;41113;41.882;12.530;2023-04-06T05:34:00;101133.78;;;6.68;67.83
54948;BME280;41113;41.882;12.530;2023-04-06T05:36:27;101139.34;;;6.65;68.71
54948;BME280;41113;41.882;12.530;2023-04-06T05:38:53;101130.97;;;6.57;69.08
54948;BME280;41113;41.882;12.530;2023-04-06T05:41:19;101132.56;;;6.32;69.12
54948;BME280;41113;41.882;12.530;2023-04-06T05:43:45;101124.75;;;6.15;70.06
54948;BME280;41113;41.882;12.530;2023-04-06T05:46:10;101131.75;;;6.44;70.02
54948;BME280;41113;41.882;12.530;2023-04-06T05:48:36;101131.13;;;6.95;67.56
54948;BME280;41113;41.882;12.530;2023-04-06T05:51:01;101130.78;;;7.39;68.25
54948;BME280;41113;41.882;12.530;2023-04-06T05:53:31;101134.00;;;6.65;66.42
54948;BME280;41113;41.882;12.530;2023-04-06T05:55:56;101136.41;;;6.55;67.68
54948;BME280;41113;41.882;12.530;2023-04-06T05:58:23;101125.34;;;6.61;67.19
54948;BME280;41113;41.882;12.530;2023-04-06T07:08:00;101160.50;;;8.49;59.66
54948;BME280;41113;41.882;12.530;2023-04-06T08:01:21;101203.50;;;9.19;56.21
54948;BME280;41113;41.882;12.530;2023-04-06T08:03:47;101183.22;;;9.03;56.44
54948;BME280;41113;41.882;12.530;2023-04-06T08:06:12;101185.72;;;9.18;56.35
54948;BME280;41113;41.882;12.530;2023-04-06T08:08:38;101180.59;;;9.15;55.59
54948;BME280;41113;41.882;12.530;2023-04-06T08:11:03;101195.50;;;9.30;56.16
54948;BME280;41113;41.882;12.530;2023-04-06T08:13:28;101196.84;;;9.24;55.04
54948;BME280;41113;41.882;12.530;2023-04-06T08:15:54;101198.66;;;9.24;55.10
54948;BME280;41113;41.882;12.530;2023-04-06T08:18:20;101203.06;;;9.25;55.41
54948;BME280;41113;41.882;12.530;2023-04-06T08:20:45;101211.19;;;9.47;55.71
54948;BME280;41113;41.882;12.530;2023-04-06T08:23:10;101210.22;;;9.48;55.30
54948;BME280;41113;41.882;12.530;2023-04-06T08:25:36;101210.00;;;9.27;55.93
54948;BME280;41113;41.882;12.530;2023-04-06T08:28:03;101219.75;;;9.28;55.74
54948;BME280;41113;41.882;12.530;2023-04-06T08:30:29;101209.41;;;9.35;55.41
54948;BME280;41113;41.882;12.530;2023-04-06T08:32:54;101205.84;;;9.58;53.61
54948;BME280;41113;41.882;12.530;2023-04-06T08:35:20;101209.81;;;9.77;52.94
54948;BME280;41113;41.882;12.530;2023-04-06T08:37:45;101204.47;;;9.99;51.97
54948;BME280;41113;41.882;12.530;2023-04-06T08:40:12;101213.19;;;10.14;50.81
54948;BME280;41113;41.882;12.530;2023-04-06T08:42:40;101210.94;;;10.08;50.80
54948;BME280;41113;41.882;12.530;2023-04-06T08:45:08;101200.81;;;10.00;51.91
54948;BME280;41113;41.882;12.530;2023-04-06T08:47:34;101208.19;;;10.32;49.84
54948;BME280;41113;41.882;12.530;2023-04-06T08:50:04;101204.25;;;10.69;50.08
54948;BME280;41113;41.882;12.530;2023-04-06T08:52:32;101213.28;;;10.90;50.24
54948;BME280;41113;41.882;12.530;2023-04-06T08:54:57;101217.78;;;10.90;48.51
54948;BME280;41113;41.882;12.530;2023-04-06T08:57:24;101212.47;;;11.22;48.20
54948;BME280;41113;41.882;12.530;2023-04-06T08:59:51;101214.50;;;11.30;48.40
54948;BME280;41113;41.882;12.530;2023-04-06T09:02:18;101218.63;;;11.45;48.72
54948;BME280;41113;41.882;12.530;2023-04-06T09:04:46;101214.09;;;11.45;48.11
54948;BME280;41113;41.882;12.530;2023-04-06T09:07:13;101214.56;;;11.71;48.18
54948;BME280;41113;41.882;12.530;2023-04-06T09:09:39;101218.94;;;11.51;46.17
54948;BME280;41113;41.882;12.530;2023-04-06T09:12:08;101220.97;;;11.38;47.02
54948;BME280;41113;41.882;12.530;2023-04-06T09:14:38;101220.06;;;11.49;47.52
54948;BME280;41113;41.882;12.530;2023-04-06T09:17:04;101217.22;;;11.82;45.74
54948;BME280;41113;41.882;12.530;2023-04-06T09:19:30;101218.34;;;11.80;45.85
54948;BME280;41113;41.882;12.530;2023-04-06T09:22:05;101205.06;;;11.88;44.97
54948;BME280;41113;41.882;12.530;2023-04-06T09:24:53;101208.66;;;11.77;45.02
54948;BME280;41113;41.882;12.530;2023-04-06T09:27:36;101212.34;;;11.76;45.10
54948;BME280;41113;41.882;12.530;2023-04-06T09:30:09;101208.75;;;11.87;45.37
54948;BME280;41113;41.882;12.530;2023-04-06T09:32:53;101207.34;;;11.72;44.61
54948;BME280;41113;41.882;12.530;2023-04-06T09:35:19;101204.16;;;11.78;44.60
54948;BME280;41113;41.882;12.530;2023-04-06T09:37:48;101205.53;;;11.93;45.63
54948;BME280;41113;41.882;12.530;2023-04-06T09:40:14;101205.00;;;12.30;46.00
54948;BME280;41113;41.882;12.530;2023-04-06T09:42:44;101205.88;;;12.30;43.91
54948;BME280;41113;41.882;12.530;2023-04-06T09:45:11;101215.44;;;12.13;43.63
54948;BME280;41113;41.882;12.530;2023-04-06T09:47:37;101197.88;;;12.19;45.62
54948;BME280;41113;41.882;12.530;2023-04-06T09:50:03;101204.44;;;12.26;45.74
54948;BME280;41113;41.882;12.530;2023-04-06T09:52:40;101217.16;;;12.14;44.41
54948;BME280;41113;41.882;12.530;2023-04-06T09:55:07;101205.53;;;12.14;45.56
54948;BME280;41113;41.882;12.530;2023-04-06T09:58:04;101209.97;;;12.25;44.22
54948;BME280;41113;41.882;12.530;2023-04-06T10:00:32;101200.88;;;12.26;43.58
54948;BME280;41113;41.882;12.530;2023-04-06T10:03:21;101214.34;;;12.26;42.71
54948;BME280;41113;41.882;12.530;2023-04-06T10:05:59;101199.91;;;12.27;42.76
54948;BME280;41113;41.882;12.530;2023-04-06T10:08:28;101212.03;;;12.42;43.82
54948;BME280;41113;41.882;12.530;2023-04-06T10:10:55;101206.53;;;12.53;43.04
54948;BME280;41113;41.882;12.530;2023-04-06T10:13:21;101199.59;;;12.51;43.06
54948;BME280;41113;41.882;12.530;2023-04-06T10:15:49;101203.59;;;12.66;43.42
54948;BME280;41113;41.882;12.530;2023-04-06T10:18:15;101204.09;;;12.81;43.26
54948;BME280;41113;41.882;12.530;2023-04-06T10:20:57;101208.59;;;12.70;42.61
54948;BME280;41113;41.882;12.530;2023-04-06T10:25:58;101202.16;;;13.02;43.47
54948;BME280;41113;41.882;12.530;2023-04-06T10:28:24;101200.97;;;12.95;43.04
54948;BME280;41113;41.882;12.530;2023-04-06T10:30:56;101207.97;;;13.07;42.13
54948;BME280;41113;41.882;12.530;2023-04-06T10:33:22;101205.28;;;13.17;43.17
54948;BME280;41113;41.882;12.530;2023-04-06T10:35:48;101200.34;;;13.31;43.51
54948;BME280;41113;41.882;12.530;2023-04-06T10:38:14;101201.34;;;13.50;43.48
54948;BME280;41113;41.882;12.530;2023-04-06T10:40:41;101195.78;;;13.61;42.03
54948;BME280;41113;41.882;12.530;2023-04-06T10:43:21;101194.53;;;13.46;42.22
54948;BME280;41113;41.882;12.530;2023-04-06T10:45:57;101197.66;;;13.31;41.48
54948;BME280;41113;41.882;12.530;2023-04-06T10:48:24;101199.50;;;13.41;39.80
54948;BME280;41113;41.882;12.530;2023-04-06T10:50:53;101201.94;;;13.34;40.25
54948;BME280;41113;41.882;12.530;2023-04-06T10:53:23;101195.38;;;13.17;39.50
54948;BME280;41113;41.882;12.530;2023-04-06T10:55:54;101199.28;;;12.94;39.93
54948;BME280;41113;41.882;12.530;2023-04-06T10:58:20;101200.16;;;13.04;41.19
54948;BME280;41113;41.882;12.530;2023-04-06T11:00:47;101191.69;;;13.18;42.08
54948;BME280;41113;41.882;12.530;2023-04-06T11:03:13;101189.44;;;13.43;42.35
54948;BME280;41113;41.882;12.530;2023-04-06T11:05:43;101195.66;;;13.53;40.26
54948;BME280;41113;41.882;12.530;2023-04-06T11:08:09;101183.47;;;13.49;41.90
54948;BME280;41113;41.882;12.530;2023-04-06T11:10:35;101184.28;;;13.59;41.99
54948;BME280;41113;41.882;12.530;2023-04-06T11:13:00;101182.75;;;13.66;41.87
54948;BME280;41113;41.882;12.530;2023-04-06T11:15:26;101179.88;;;13.58;39.06
54948;BME280;41113;41.882;12.530;2023-04-06T11:17:51;101174.38;;;13.50;39.76
54948;BME280;41113;41.882;12.530;2023-04-06T11:20:17;101174.94;;;13.44;40.06
54948;BME280;41113;41.882;12.530;2023-04-06T11:22:51;101170.13;;;13.47;38.35
54948;BME280;41113;41.882;12.530;2023-04-06T11:25:17;101175.66;;;13.36;39.15
54948;BME280;41113;41.882;12.530;2023-04-06T11:27:44;101182.34;;;13.42;37.99
54948;BME280;41113;41.882;12.530;2023-04-06T11:30:10;101169.25;;;13.27;36.73
54948;BME280;41113;41.882;12.530;2023-04-06T11:32:41;101174.94;;;13.24;36.69
54948;BME280;41113;41.882;12.530;2023-04-06T11:35:10;101169.66;;;13.32;36.49
54948;BME280;41113;41.882;12.530;2023-04-06T11:37:37;101164.28;;;13.32;36.97
54948;BME280;41113;41.882;12.530;2023-04-06T11:40:03;101158.19;;;13.40;38.61
54948;BME280;41113;41.882;12.530;2023-04-06T11:42:34;101161.03;;;13.38;36.02
54948;BME280;41113;41.882;12.530;2023-04-06T11:44:59;101164.16;;;13.24;35.63
54948;BME280;41113;41.882;12.530;2023-04-06T11:47:36;101150.50;;;13.26;37.51
54948;BME280;41113;41.882;12.530;2023-04-06T11:50:13;101155.47;;;13.50;37.26
54948;BME280;41113;41.882;12.530;2023-04-06T11:52:40;101154.31;;;13.72;38.66
54948;BME280;41113;41.882;12.530;2023-04-06T11:55:16;101149.44;;;13.85;37.04
54948;BME280;41113;41.882;12.530;2023-04-06T11:57:43;101140.97;;;13.70;36.91
54948;BME280;41113;41.882;12.530;2023-04-06T12:00:10;101138.81;;;13.64;36.92
54948;BME280;41113;41.882;12.530;2023-04-06T12:02:39;101143.38;;;13.73;37.74
54948;BME280;41113;41.882;12.530;2023-04-06T12:05:05;101142.19;;;13.85;37.88
54948;BME280;41113;41.882;12.530;2023-04-06T12:07:32;101136.56;;;13.69;34.53
54948;BME280;41113;41.882;12.530;2023-04-06T12:09:58;101139.69;;;13.64;35.29
54948;BME280;41113;41.882;12.530;2023-04-06T12:12:30;101135.28;;;13.73;36.40
54948;BME280;41113;41.882;12.530;2023-04-06T12:14:57;101130.69;;;13.83;36.92
54948;BME280;41113;41.882;12.530;2023-04-06T12:17:23;101127.28;;;13.81;36.89
54948;BME280;41113;41.882;12.530;2023-04-06T12:19:49;101125.00;;;13.86;36.90
54948;BME280;41113;41.882;12.530;2023-04-06T12:22:16;101122.56;;;13.93;37.19
54948;BME280;41113;41.882;12.530;2023-04-06T12:24:41;101128.81;;;13.93;37.11
54948;BME280;41113;41.882;12.530;2023-04-06T12:27:06;101133.22;;;13.94;37.45
54948;BME280;41113;41.882;12.530;2023-04-06T12:29:33;101122.28;;;13.86;36.32
54948;BME280;41113;41.882;12.530;2023-04-06T12:31:59;101122.44;;;13.85;37.31
54948;BME280;41113;41.882;12.530;2023-04-06T12:34:26;101126.41;;;13.90;37.09
54948;BME280;41113;41.882;12.530;2023-04-06T12:36:51;101120.25;;;13.98;37.08
54948;BME280;41113;41.882;12.530;2023-04-06T12:39:18;101116.00;;;14.05;36.99
54948;BME280;41113;41.882;12.530;2023-04-06T12:41:44;101123.66;;;14.10;37.24
54948;BME280;41113;41.882;12.530;2023-04-06T12:44:09;101115.94;;;14.15;37.27
54948;BME280;41113;41.882;12.530;2023-04-06T12:46:35;101100.84;;;14.22;37.32
54948;BME280;41113;41.882;12.530;2023-04-06T12:49:01;101101.66;;;14.32;37.01
54948;BME280;41113;41.882;12.530;2023-04-06T12:51:30;101100.53;;;14.25;35.38
54948;BME280;41113;41.882;12.530;2023-04-06T12:53:56;101097.44;;;14.20;36.59
54948;BME280;41113;41.882;12.530;2023-04-06T12:56:24;101096.28;;;14.22;36.27
54948;BME280;41113;41.882;12.530;2023-04-06T12:58:51;101096.09;;;14.33;36.55
54948;BME280;41113;41.882;12.530;2023-04-06T13:01:18;101107.56;;;14.45;36.46
54948;BME280;41113;41.882;12.530;2023-04-06T13:03:43;101101.47;;;14.43;36.32
54948;BME280;41113;41.882;12.530;2023-04-06T13:06:09;101093.63;;;14.40;36.55
54948;BME280;41113;41.882;12.530;2023-04-06T13:08:35;101091.13;;;14.29;35.57
54948;BME280;41113;41.882;12.530;2023-04-06T13:11:04;101099.97;;;14.31;36.28
54948;BME280;41113;41.882;12.530;2023-04-06T13:13:30;101094.94;;;14.36;36.45
54948;BME280;41113;41.882;12.530;2023-04-06T13:16:00;101093.94;;;14.37;35.84
54948;BME280;41113;41.882;12.530;2023-04-06T13:18:27;101096.50;;;14.39;36.58
54948;BME280;41113;41.882;12.530;2023-04-06T13:20:52;101086.38;;;14.41;36.67
54948;BME280;41113;41.882;12.530;2023-04-06T13:23:20;101094.50;;;14.41;36.95
54948;BME280;41113;41.882;12.530;2023-04-06T13:25:45;101088.22;;;14.40;36.71
54948;BME280;41113;41.882;12.530;2023-04-06T13:28:11;101090.25;;;14.38;36.75
54948;BME280;41113;41.882;12.530;2023-04-06T13:30:36;101091.09;;;14.39;36.36
54948;BME280;41113;41.882;12.530;2023-04-06T13:33:02;101095.75;;;14.46;36.83
54948;BME280;41113;41.882;12.530;2023-04-06T13:35:27;101087.03;;;14.52;36.72
54948;BME280;41113;41.882;12.530;2023-04-06T13:37:53;101087.59;;;14.56;36.92
54948;BME280;41113;41.882;12.530;2023-04-06T13:40:18;101079.31;;;14.57;36.65
54948;BME280;41113;41.882;12.530;2023-04-06T13:42:44;101075.31;;;14.61;36.65
54948;BME280;41113;41.882;12.530;2023-04-06T13:45:11;101072.59;;;14.61;35.78
54948;BME280;41113;41.882;12.530;2023-04-06T13:47:36;101078.00;;;14.61;35.90
54948;BME280;41113;41.882;12.530;2023-04-06T13:50:03;101085.03;;;14.54;35.51
54948;BME280;41113;41.882;12.530;2023-04-06T13:52:29;101071.13;;;14.49;35.05
54948;BME280;41113;41.882;12.530;2023-04-06T13:54:54;101087.44;;;14.57;35.46
54948;BME280;41113;41.882;12.530;2023-04-06T13:57:20;101083.19;;;14.55;35.86
54948;BME280;41113;41.882;12.530;2023-04-06T13:59:45;101081.72;;;14.43;30.66
54948;BME280;41113;41.882;12.530;2023-04-06T14:02:10;101074.44;;;14.43;34.33
54948;BME280;41113;41.882;12.530;2023-04-06T14:04:37;101072.59;;;14.44;33.25
54948;BME280;41113;41.882;12.530;2023-04-06T14:07:03;101072.44;;;14.45;35.38
54948;BME280;41113;41.882;12.530;2023-04-06T14:09:29;101060.94;;;14.43;36.00
54948;BME280;41113;41.882;12.530;2023-04-06T14:11:58;101065.34;;;14.44;36.19
54948;BME280;41113;41.882;12.530;2023-04-06T14:14:23;101053.53;;;14.45;37.05
54948;BME280;41113;41.882;12.530;2023-04-06T14:16:48;101061.22;;;14.40;37.46
54948;BME280;41113;41.882;12.530;2023-04-06T14:19:16;101058.50;;;14.40;37.98
54948;BME280;41113;41.882;12.530;2023-04-06T14:21:43;101057.66;;;14.40;38.42
54948;BME280;41113;41.882;12.530;2023-04-06T14:24:10;101056.50;;;14.42;38.82
54948;BME280;41113;41.882;12.530;2023-04-06T14:26:36;101054.22;;;14.47;39.18
54948;BME280;41113;41.882;12.530;2023-04-06T14:29:05;101060.31;;;14.49;39.74
54948;BME280;41113;41.882;12.530;2023-04-06T14:31:31;101054.22;;;14.47;40.13
54948;BME280;41113;41.882;12.530;2023-04-06T14:33:57;101058.94;;;14.45;40.72
54948;BME280;41113;41.882;12.530;2023-04-06T14:36:23;101058.63;;;14.48;40.43
54948;BME280;41113;41.882;12.530;2023-04-06T14:38:52;101052.09;;;14.41;40.66
54948;BME280;41113;41.882;12.530;2023-04-06T14:41:19;101055.66;;;14.42;40.70
54948;BME280;41113;41.882;12.530;2023-04-06T14:43:46;101052.41;;;14.38;40.97